Main page
METAR-TAF:

METAR-TAF

Airports :

Glasgow Prestwick Airport

Glasgow-Prestwick, Scotland

latitude: 55-30N, longitude: 004-35W, elevation: 20 m

Current weather observation

The report was made 45 minutes ago, at 03:50 UTC
Wind 9 kt from the Southwest
Temperature 13°C
Humidity 82%
Pressure 1005 hPa
Visibility 10 km or more
Scattered clouds at a height of 3000 ft

METAR: EGPK 160350Z 23009KT 9999 SCT030 13/10 Q1005

Time: 05:35 (04:35 UTC)

Forecast

The report was made 5 hours and 41 minutes ago, at 22:54 UTC
Forecast valid from 16 at 00 UTC to 16 at 24 UTC
Wind 9 kt from the Southwest
Visibility 10 km or more
Scattered clouds at a height of 3000 ft
Probability 40% :
Temporary
from 16 at 11 UTC to 16 at 24 UTC
Wind 15 kt from the Southwest with gusts up to 25 kt
Visibility: 7000 m
rain showers

TAF: EGPK 152254Z 1600/1624 22009KT 9999 SCT030 PROB40 TEMPO 1611/1624 23015G25KT 7000 SHRA

Weather observations and forecasts of more than 4000 airports (METAR and TAF reports).

The available stations are represented by yellow and red dots on the map.

Hover mouse over dot to see the name of the station.

Then click to see weather observations and forecasts.

To change the map : click on the green buttons with a black cross to zoom in, on the green button with a dash to zoom out, or on the green arrows for adjacent maps.


METAR-TAF: